Time;durP1;ratioP1;P1;durP2;ratioP2;P2;SDS_P1;SDS_P2;PMS_P1;PMS_P2;Temp;Humidity;BMP_temperature;BMP_pressure;BME280_temperature;BME280_humidity;BME280_pressure;Samples;Min_cycle;Max_cycle;Signal;HPM_P1;HPM_P2
2023/08/08 00:01:28;;;;;;;12.32;2.22;;;;;;;16.74;88.89;100236.94;5066974;28;20664;-63
2023/08/08 00:03:54;;;;;;;4.05;1.52;;;;;;;16.76;88.78;100246.69;5067359;28;20512;-61
2023/08/08 00:06:19;;;;;;;2.55;1.60;;;;;;;16.71;89.09;100248.75;5069526;28;20063;-62
2023/08/08 00:08:45;;;;;;;3.88;1.52;;;;;;;16.67;89.19;100251.69;5066781;28;20757;-62
2023/08/08 00:11:10;;;;;;;2.70;1.40;;;;;;;16.61;90.06;100252.00;5066640;28;20036;-62
2023/08/08 00:13:36;;;;;;;2.30;1.38;;;;;;;16.58;90.48;100252.16;5069146;28;20050;-62
2023/08/08 00:16:02;;;;;;;3.13;2.28;;;;;;;16.49;91.09;100244.59;5086269;28;20024;-62
2023/08/08 00:18:27;;;;;;;2.85;1.40;;;;;;;16.35;91.33;100241.72;5078120;28;20039;-62
2023/08/08 00:20:53;;;;;;;2.58;1.73;;;;;;;16.37;91.71;100247.91;5067511;28;20029;-61
2023/08/08 00:23:18;;;;;;;3.47;2.20;;;;;;;16.36;91.74;100244.34;5067913;28;20030;-62
2023/08/08 00:25:44;;;;;;;3.10;1.70;;;;;;;16.39;92.26;100249.53;5067746;28;20024;-61
2023/08/08 00:28:09;;;;;;;3.70;1.67;;;;;;;16.38;92.76;100244.25;5077984;28;20453;-62
2023/08/08 00:30:34;;;;;;;2.55;1.55;;;;;;;16.32;92.37;100240.09;5086726;28;20019;-61
2023/08/08 00:33:00;;;;;;;4.97;1.58;;;;;;;16.38;92.56;100241.56;5081889;28;20040;-62
2023/08/08 00:35:25;;;;;;;1.95;1.33;;;;;;;16.36;92.44;100235.44;5067075;28;20035;-61
2023/08/08 00:37:50;;;;;;;2.83;1.45;;;;;;;16.36;92.51;100230.91;5070023;28;20024;-62
2023/08/08 00:40:16;;;;;;;4.53;1.80;;;;;;;16.38;91.63;100228.13;5070294;28;20040;-62
2023/08/08 00:42:41;;;;;;;2.33;1.45;;;;;;;16.36;91.66;100230.06;5072858;28;20829;-62
2023/08/08 00:45:07;;;;;;;2.55;1.40;;;;;;;16.36;91.94;100225.53;5082853;28;20020;-62
2023/08/08 00:47:34;;;;;;;3.28;1.70;;;;;;;16.32;91.18;100218.63;5087458;28;20789;-62
2023/08/08 00:50:02;;;;;;;10.45;1.75;;;;;;;16.34;91.92;100227.44;5069408;28;20395;-62
2023/08/08 00:52:28;;;;;;;2.95;1.45;;;;;;;16.32;91.51;100218.63;5068874;28;20798;-63
2023/08/08 00:54:53;;;;;;;3.00;1.40;;;;;;;16.31;91.84;100226.75;5077974;28;20236;-63
2023/08/08 00:57:19;;;;;;;4.00;2.00;;;;;;;16.26;91.42;100215.38;5089020;28;20027;-63
2023/08/08 00:59:45;;;;;;;4.28;1.67;;;;;;;16.21;92.33;100226.34;5086177;28;20028;-62
2023/08/08 01:02:11;;;;;;;5.22;1.90;;;;;;;16.18;91.97;100231.00;5090955;28;20032;-63
2023/08/08 01:04:37;;;;;;;3.03;1.50;;;;;;;16.14;92.60;100232.13;5088591;28;20558;-61
2023/08/08 01:07:25;;;;;;;2.67;1.50;;;;;;;16.14;92.40;100218.69;5081336;28;20048;-62
2023/08/08 01:10:04;;;;;;;6.22;1.80;;;;;;;16.14;93.19;100221.38;5066740;28;20033;-63
2023/08/08 01:12:30;;;;;;;3.70;1.60;;;;;;;16.17;92.39;100229.28;5070096;28;20025;-62
2023/08/08 01:14:57;;;;;;;3.13;1.80;;;;;;;16.22;92.53;100217.34;5065936;28;20381;-61
2023/08/08 01:17:25;;;;;;;3.22;1.67;;;;;;;16.27;92.36;100219.78;5055611;28;20051;-61
2023/08/08 01:19:51;;;;;;;4.03;2.00;;;;;;;16.32;92.47;100215.06;5070689;28;20136;-61
2023/08/08 01:22:32;;;;;;;5.00;1.80;;;;;;;16.31;92.03;100210.66;5066702;28;20040;-62
2023/08/08 01:25:00;;;;;;;3.92;1.92;;;;;;;16.31;92.20;100205.28;5070107;28;20107;-62
2023/08/08 01:27:25;;;;;;;3.53;1.75;;;;;;;16.38;91.85;100220.97;5070411;28;20038;-62
2023/08/08 01:29:52;;;;;;;5.00;2.05;;;;;;;16.38;91.31;100217.41;5067773;28;20024;-63
2023/08/08 01:32:17;;;;;;;5.10;2.00;;;;;;;16.52;91.11;100206.84;5050688;28;20033;-61
2023/08/08 01:34:43;;;;;;;4.15;1.77;;;;;;;16.62;89.90;100213.47;5069917;28;20020;-62
2023/08/08 01:37:22;;;;;;;2.38;1.42;;;;;;;16.69;89.82;100217.53;5065978;28;20084;-62
2023/08/08 01:39:49;;;;;;;3.80;1.38;;;;;;;16.71;89.02;100221.00;5069955;28;20031;-62
2023/08/08 01:42:15;;;;;;;3.65;1.90;;;;;;;16.70;88.91;100219.28;5062181;28;20025;-62
2023/08/08 01:44:41;;;;;;;3.67;2.40;;;;;;;16.71;88.88;100210.25;5057610;28;20648;-62
2023/08/08 01:47:08;;;;;;;4.32;1.77;;;;;;;16.70;88.69;100209.41;5068521;28;20035;-62
2023/08/08 01:49:33;;;;;;;3.78;1.50;;;;;;;16.75;88.96;100219.91;5068597;28;20033;-62
2023/08/08 01:51:59;;;;;;;2.97;1.52;;;;;;;16.72;88.63;100214.69;5057509;28;20059;-63
2023/08/08 01:54:24;;;;;;;6.70;2.03;;;;;;;16.73;88.66;100213.72;5051423;28;20028;-63
2023/08/08 01:56:50;;;;;;;3.78;1.65;;;;;;;16.77;88.85;100221.53;5067908;28;20035;-62
2023/08/08 01:59:15;;;;;;;3.17;1.40;;;;;;;16.67;89.28;100216.78;5069588;28;20123;-63
2023/08/08 02:01:41;;;;;;;4.07;1.70;;;;;;;16.67;89.62;100219.44;5069527;28;20025;-63
2023/08/08 02:04:06;;;;;;;2.35;1.50;;;;;;;16.73;89.03;100219.09;5055089;28;20033;-61
2023/08/08 02:06:31;;;;;;;2.88;1.58;;;;;;;16.71;88.92;100219.19;5031065;28;20055;-62
2023/08/08 02:08:58;;;;;;;3.35;1.50;;;;;;;16.77;88.85;100216.16;5065856;28;20761;-62
2023/08/08 02:11:23;;;;;;;2.75;1.73;;;;;;;16.74;89.00;100212.78;5050115;28;20091;-63
2023/08/08 02:13:48;;;;;;;2.40;1.40;;;;;;;16.79;88.82;100210.69;5049246;28;20496;-63
2023/08/08 02:16:14;;;;;;;2.97;1.42;;;;;;;16.80;88.94;100209.78;5069121;28;20111;-62
2023/08/08 02:18:41;;;;;;;4.40;1.70;;;;;;;16.51;89.54;100202.41;5060586;28;20392;-62
2023/08/08 02:21:07;;;;;;;2.80;1.50;;;;;;;16.26;92.13;100208.19;5053353;28;20064;-62
2023/08/08 02:23:33;;;;;;;3.17;1.60;;;;;;;16.15;92.41;100198.94;5049518;28;20031;-62
2023/08/08 02:25:59;;;;;;;3.15;1.70;;;;;;;16.61;90.06;100204.53;5049099;28;20052;-62
2023/08/08 02:28:24;;;;;;;4.40;1.45;;;;;;;16.67;89.73;100200.66;5051720;28;20039;-62
2023/08/08 02:30:49;;;;;;;4.40;1.80;;;;;;;16.79;88.80;100202.66;5048255;28;20113;-62
2023/08/08 02:33:15;;;;;;;3.33;1.60;;;;;;;16.75;87.64;100196.56;5052000;28;20376;-62
2023/08/08 02:35:40;;;;;;;3.90;1.70;;;;;;;16.84;88.24;100208.63;5065394;28;20024;-63
2023/08/08 02:38:06;;;;;;;3.38;1.55;;;;;;;16.84;88.46;100214.88;5051822;28;20614;-62
2023/08/08 02:40:32;;;;;;;3.33;1.65;;;;;;;16.79;88.25;100213.38;5047221;28;20059;-63
2023/08/08 02:42:58;;;;;;;5.50;2.00;;;;;;;16.76;88.53;100213.56;5047286;28;20017;-63
2023/08/08 02:45:23;;;;;;;5.88;1.70;;;;;;;16.70;88.08;100219.28;5061910;28;20710;-63
2023/08/08 02:47:49;;;;;;;6.53;1.50;;;;;;;16.66;88.42;100212.31;5053503;28;20043;-62
2023/08/08 02:50:14;;;;;;;3.85;1.50;;;;;;;16.61;88.81;100219.75;5048770;28;20115;-62
2023/08/08 02:52:39;;;;;;;2.38;1.40;;;;;;;16.61;88.52;100217.06;5059443;28;20032;-62
2023/08/08 02:55:05;;;;;;;3.05;1.70;;;;;;;16.59;89.21;100211.78;5057024;28;20017;-63
2023/08/08 02:57:31;;;;;;;2.75;1.52;;;;;;;16.56;88.60;100216.44;5068643;28;20059;-62
2023/08/08 02:59:56;;;;;;;2.78;1.40;;;;;;;16.53;89.03;100212.13;5054104;28;20459;-62
2023/08/08 03:02:21;;;;;;;3.42;1.65;;;;;;;16.47;89.71;100222.34;5048519;28;20039;-62
2023/08/08 03:04:47;;;;;;;4.70;1.65;;;;;;;16.43;89.16;100223.41;5050424;28;20036;-63
2023/08/08 03:07:12;;;;;;;3.00;1.63;;;;;;;16.34;90.23;100215.84;5057572;28;20139;-62
2023/08/08 03:09:37;;;;;;;2.95;1.50;;;;;;;16.30;90.14;100225.88;5074916;28;20032;-63
2023/08/08 03:12:03;;;;;;;5.45;1.80;;;;;;;16.06;90.54;100231.66;5071143;28;20028;-63
2023/08/08 03:14:29;;;;;;;4.45;1.92;;;;;;;16.34;90.45;100226.59;5087107;28;20051;-63
2023/08/08 03:16:54;;;;;;;2.85;1.48;;;;;;;16.33;90.27;100227.50;5083026;28;20023;-63
2023/08/08 03:19:20;;;;;;;3.83;2.00;;;;;;;16.35;90.21;100225.63;5080632;28;20028;-63
2023/08/08 03:21:45;;;;;;;4.32;1.95;;;;;;;16.37;89.30;100221.94;5072547;28;20112;-62
2023/08/08 03:24:11;;;;;;;22.27;2.97;;;;;;;16.43;89.62;100220.72;5070466;28;20032;-63
2023/08/08 03:26:36;;;;;;;24.85;3.88;;;;;;;16.02;90.39;100216.63;5070663;28;20068;-61
2023/08/08 03:29:02;;;;;;;23.98;2.72;;;;;;;15.94;92.44;100216.16;5069980;28;20522;-63
2023/08/08 03:31:27;;;;;;;52.80;4.75;;;;;;;15.87;92.00;100225.47;5067715;28;20027;-63
2023/08/08 03:33:53;;;;;;;14.80;3.05;;;;;;;15.97;92.49;100232.09;5067263;28;20681;-62
2023/08/08 03:36:18;;;;;;;6.75;2.03;;;;;;;16.42;89.36;100222.56;5067143;28;20508;-62
2023/08/08 03:38:45;;;;;;;3.05;2.40;;;;;;;16.49;88.83;100231.19;5069413;28;20032;-62
2023/08/08 03:41:11;;;;;;;4.57;1.52;;;;;;;16.56;88.00;100222.69;5071829;28;20027;-62
2023/08/08 03:43:38;;;;;;;4.80;1.60;;;;;;;16.61;87.81;100226.00;5077282;28;20055;-63
2023/08/08 03:46:03;;;;;;;8.40;1.60;;;;;;;16.61;87.73;100225.13;5083887;28;20104;-62
2023/08/08 03:48:29;;;;;;;2.53;1.85;;;;;;;16.02;91.09;100230.06;5088042;28;20472;-62
2023/08/08 03:50:54;;;;;;;3.70;1.73;;;;;;;15.83;93.07;100224.78;5086429;28;20027;-62
2023/08/08 03:53:19;;;;;;;2.55;1.58;;;;;;;15.75;93.07;100217.09;5078472;28;20377;-63
2023/08/08 03:55:45;;;;;;;3.03;1.30;;;;;;;15.74;93.83;100210.03;5069927;28;20028;-62
2023/08/08 03:58:10;;;;;;;5.75;1.90;;;;;;;15.70;94.14;100211.09;5088090;28;20020;-63
2023/08/08 04:00:37;;;;;;;4.43;1.80;;;;;;;15.67;94.14;100213.94;5080469;28;20043;-62
2023/08/08 04:03:03;;;;;;;3.58;1.90;;;;;;;15.66;94.12;100208.66;5068132;28;20384;-61
2023/08/08 04:05:28;;;;;;;3.17;1.92;;;;;;;15.65;94.97;100220.31;5080476;28;20032;-61
2023/08/08 04:07:53;;;;;;;4.50;1.90;;;;;;;15.62;94.87;100209.75;5069451;28;20809;-62
2023/08/08 04:10:19;;;;;;;2.53;1.52;;;;;;;15.60;95.39;100217.88;5070760;28;20032;-61
2023/08/08 04:12:44;;;;;;;3.50;1.83;;;;;;;15.63;95.79;100228.44;5071071;28;20032;-61
2023/08/08 04:15:10;;;;;;;2.45;1.60;;;;;;;15.61;95.92;100224.09;5083864;28;20593;-61
2023/08/08 04:17:36;;;;;;;3.20;1.70;;;;;;;15.62;95.21;100231.19;5090095;28;20035;-62
2023/08/08 04:20:02;;;;;;;3.45;1.50;;;;;;;15.60;95.50;100233.97;5087263;28;20107;-63
2023/08/08 04:22:27;;;;;;;4.05;1.83;;;;;;;15.63;95.22;100228.44;5088893;28;20152;-62
2023/08/08 04:24:53;;;;;;;3.22;1.55;;;;;;;15.63;95.83;100233.78;5084295;28;20180;-61
2023/08/08 04:27:18;;;;;;;9.77;1.77;;;;;;;15.61;95.38;100230.34;5069369;28;20036;-63
2023/08/08 04:29:43;;;;;;;2.65;1.65;;;;;;;15.62;95.64;100237.44;5069770;28;20115;-63
2023/08/08 04:32:09;;;;;;;3.80;1.70;;;;;;;15.63;95.61;100235.63;5070254;28;20025;-61
2023/08/08 04:34:34;;;;;;;8.80;1.67;;;;;;;15.60;96.49;100242.00;5072515;28;20034;-62
2023/08/08 04:37:00;;;;;;;7.63;1.60;;;;;;;15.65;96.32;100242.63;5070158;28;20024;-62
2023/08/08 04:39:25;;;;;;;5.40;2.15;;;;;;;15.67;96.85;100246.13;5070916;28;21184;-61
2023/08/08 04:41:51;;;;;;;3.78;1.42;;;;;;;15.72;95.96;100244.09;5088928;28;20016;-61
2023/08/08 04:44:16;;;;;;;5.72;2.08;;;;;;;15.72;97.14;100238.72;5091374;28;20096;-61
2023/08/08 04:46:42;;;;;;;3.17;1.70;;;;;;;15.75;96.22;100232.31;5091252;28;20016;-62
2023/08/08 04:49:07;;;;;;;10.57;1.88;;;;;;;15.76;95.76;100239.44;5087710;28;20028;-61
2023/08/08 04:51:32;;;;;;;7.35;2.13;;;;;;;15.75;96.62;100241.25;5091049;28;20023;-62
2023/08/08 04:53:58;;;;;;;3.88;1.50;;;;;;;15.77;95.86;100236.69;5091441;28;20020;-61
2023/08/08 04:56:23;;;;;;;3.80;2.00;;;;;;;15.75;95.93;100246.59;5090822;28;20031;-61
2023/08/08 04:58:49;;;;;;;3.22;1.48;;;;;;;15.69;95.94;100238.00;5083616;28;20090;-62
2023/08/08 05:01:15;;;;;;;5.55;1.95;;;;;;;15.64;96.64;100238.25;5073338;28;20035;-62
2023/08/08 05:03:41;;;;;;;7.13;1.73;;;;;;;15.65;95.50;100237.28;5080661;28;20476;-61
2023/08/08 05:06:07;;;;;;;2.67;1.65;;;;;;;15.69;96.32;100244.25;5089237;28;20034;-63
2023/08/08 05:08:32;;;;;;;3.45;1.70;;;;;;;15.72;96.20;100243.22;5061126;28;20056;-61
2023/08/08 05:10:57;;;;;;;3.03;1.70;;;;;;;15.73;96.15;100248.50;5069825;28;20036;-61
2023/08/08 05:13:23;;;;;;;3.50;1.65;;;;;;;15.82;96.47;100239.13;5061793;28;20034;-61
2023/08/08 05:15:48;;;;;;;5.72;1.90;;;;;;;15.87;95.55;100238.88;5067895;28;20101;-61
2023/08/08 05:18:14;;;;;;;5.05;1.52;;;;;;;15.92;95.44;100239.53;5064898;28;20125;-64
2023/08/08 05:20:39;;;;;;;2.25;1.38;;;;;;;15.95;95.17;100244.75;5055824;28;20465;-62
2023/08/08 05:23:05;;;;;;;3.33;1.30;;;;;;;16.02;94.39;100241.66;5048512;28;20079;-63
2023/08/08 05:25:30;;;;;;;2.92;1.60;;;;;;;16.12;93.71;100234.00;5051454;28;20025;-62
2023/08/08 05:27:55;;;;;;;5.30;1.83;;;;;;;16.14;94.12;100229.44;5049056;28;20488;-63
2023/08/08 05:30:21;;;;;;;17.13;2.10;;;;;;;16.18;93.91;100231.00;5049140;28;20381;-62
2023/08/08 05:32:47;;;;;;;6.13;1.60;;;;;;;16.32;93.95;100240.09;5066832;28;20060;-62
2023/08/08 05:35:13;;;;;;;13.27;1.70;;;;;;;16.34;93.00;100240.00;5068061;28;20491;-62
2023/08/08 05:37:38;;;;;;;6.32;2.00;;;;;;;16.36;92.26;100235.44;5058230;28;20491;-62
2023/08/08 05:40:06;;;;;;;3.83;1.75;;;;;;;16.36;91.77;100238.13;5050078;28;20062;-61
2023/08/08 05:42:32;;;;;;;5.22;2.17;;;;;;;16.37;91.56;100239.84;5062640;28;20111;-62
2023/08/08 05:44:57;;;;;;;3.92;1.85;;;;;;;16.48;92.41;100234.78;5068924;28;20108;-61
2023/08/08 05:47:22;;;;;;;2.70;1.40;;;;;;;16.62;90.93;100249.22;5064313;28;20031;-62
2023/08/08 05:49:48;;;;;;;4.38;1.73;;;;;;;16.76;90.81;100241.31;5068383;28;20028;-62
2023/08/08 05:52:13;;;;;;;5.05;1.77;;;;;;;17.02;89.96;100242.56;5061985;28;20055;-62
2023/08/08 05:54:39;;;;;;;9.77;1.83;;;;;;;17.40;87.62;100238.59;5053190;28;20024;-61
2023/08/08 05:57:04;;;;;;;4.78;1.40;;;;;;;17.45;84.53;100241.91;5068661;28;20528;-61
2023/08/08 05:59:30;;;;;;;3.75;1.17;;;;;;;17.39;83.36;100246.75;5066148;28;20120;-62
2023/08/08 06:01:55;;;;;;;4.32;1.60;;;;;;;17.28;84.54;100241.13;5068656;28;20037;-60
2023/08/08 06:04:21;;;;;;;6.00;2.33;;;;;;;17.31;84.57;100241.81;5069270;28;20032;-61
2023/08/08 06:06:48;;;;;;;2.42;1.35;;;;;;;17.33;84.40;100252.47;5062932;28;20113;-62
2023/08/08 06:09:14;;;;;;;3.25;1.40;;;;;;;17.39;84.53;100253.00;5071214;28;20106;-62
2023/08/08 06:11:40;;;;;;;3.28;1.40;;;;;;;17.40;83.88;100249.34;5078272;28;20020;-61
2023/08/08 06:14:05;;;;;;;2.25;1.20;;;;;;;17.47;84.17;100250.78;5079108;28;20111;-62
2023/08/08 06:16:31;;;;;;;1.90;1.13;;;;;;;17.51;84.70;100260.38;5076414;28;20484;-62
2023/08/08 06:18:56;;;;;;;3.75;1.10;;;;;;;17.58;83.54;100269.84;5070849;28;20098;-63
2023/08/08 06:21:21;;;;;;;1.95;1.20;;;;;;;17.61;83.16;100258.06;5081534;28;20123;-62
2023/08/08 06:23:47;;;;;;;3.92;1.38;;;;;;;17.80;82.49;100259.59;5088190;28;20388;-62
2023/08/08 06:26:13;;;;;;;2.72;1.58;;;;;;;17.90;82.43;100258.13;5084771;28;20044;-62
2023/08/08 06:28:38;;;;;;;5.75;1.52;;;;;;;18.02;82.26;100253.84;5088053;28;20024;-61
2023/08/08 06:31:04;;;;;;;4.35;1.38;;;;;;;18.18;81.35;100252.81;5082339;28;20024;-62
2023/08/08 06:33:29;;;;;;;2.22;1.30;;;;;;;18.26;80.88;100244.28;5067797;28;20365;-62
2023/08/08 06:35:55;;;;;;;4.60;1.42;;;;;;;18.41;80.63;100242.50;5068740;28;20104;-62
2023/08/08 06:38:21;;;;;;;3.80;1.83;;;;;;;18.50;79.54;100250.03;5071280;28;20028;-63
2023/08/08 06:40:46;;;;;;;4.15;1.60;;;;;;;18.48;79.00;100252.84;5071205;28;20181;-62
2023/08/08 06:43:12;;;;;;;3.38;1.45;;;;;;;18.52;78.61;100248.97;5068834;28;20454;-61
2023/08/08 06:45:38;;;;;;;4.05;1.60;;;;;;;18.59;77.66;100252.16;5080456;28;20131;-62
2023/08/08 06:48:04;;;;;;;2.42;1.13;;;;;;;18.61;78.10;100250.25;5068738;28;20097;-62
2023/08/08 06:50:29;;;;;;;1.92;1.15;;;;;;;18.74;77.90;100243.13;5082749;28;20032;-62
2023/08/08 06:52:55;;;;;;;2.67;1.10;;;;;;;18.92;77.32;100248.25;5085933;28;20368;-62
2023/08/08 06:55:20;;;;;;;2.97;1.05;;;;;;;19.11;76.61;100247.97;5088648;28;20110;-61
2023/08/08 06:57:46;;;;;;;3.35;1.30;;;;;;;19.20;75.20;100236.56;5080223;28;20024;-61
2023/08/08 07:00:12;;;;;;;1.83;0.98;;;;;;;19.21;74.16;100233.78;5069405;28;20032;-61
2023/08/08 07:02:38;;;;;;;6.40;1.42;;;;;;;19.36;74.64;100232.81;5088644;28;20024;-61
2023/08/08 07:05:03;;;;;;;2.83;1.05;;;;;;;19.57;74.41;100238.66;5071134;28;20115;-62
2023/08/08 07:07:30;;;;;;;3.28;1.27;;;;;;;19.82;73.00;100236.03;5070597;28;20053;-62
2023/08/08 07:09:56;;;;;;;2.20;1.08;;;;;;;19.85;71.46;100235.81;5079582;28;20733;-62
2023/08/08 07:12:21;;;;;;;2.25;1.13;;;;;;;20.07;72.46;100240.66;5078869;28;20119;-62
2023/08/08 07:14:47;;;;;;;3.75;1.00;;;;;;;20.32;69.49;100247.03;5077606;28;20027;-62
2023/08/08 07:17:12;;;;;;;2.47;1.00;;;;;;;20.48;68.55;100236.88;5080248;28;20031;-61
2023/08/08 07:19:37;;;;;;;2.95;1.17;;;;;;;20.67;68.00;100237.31;5081462;28;20021;-61
2023/08/08 07:22:03;;;;;;;1.48;1.02;;;;;;;20.99;68.29;100236.94;5079149;28;20024;-62
2023/08/08 07:24:28;;;;;;;2.78;1.02;;;;;;;21.16;65.64;100233.84;5074332;28;20051;-62
2023/08/08 07:26:58;;;;;;;3.63;1.02;;;;;;;21.37;63.88;100226.88;5075087;28;20399;-62
2023/08/08 07:29:24;;;;;;;3.10;1.00;;;;;;;21.60;65.05;100224.19;5078912;28;20047;-62
2023/08/08 07:31:53;;;;;;;2.17;1.15;;;;;;;21.73;62.75;100227.72;5070721;28;20032;-62
2023/08/08 07:34:19;;;;;;;1.80;1.00;;;;;;;21.76;62.08;100218.50;5082272;28;20074;-62
2023/08/08 07:36:46;;;;;;;3.00;1.40;;;;;;;21.76;63.92;100213.09;5080236;28;20028;-62
2023/08/08 07:39:12;;;;;;;1.60;0.90;;;;;;;22.11;62.13;100222.13;5068427;28;20084;-62
2023/08/08 07:41:37;;;;;;;1.35;0.75;;;;;;;22.40;60.99;100222.59;5071553;28;20422;-62
2023/08/08 07:44:03;;;;;;;2.97;1.10;;;;;;;22.62;59.48;100233.53;5078173;28;20915;-62
2023/08/08 07:46:28;;;;;;;2.08;1.00;;;;;;;22.80;59.15;100230.22;5080596;28;20096;-62
2023/08/08 07:48:54;;;;;;;1.77;0.88;;;;;;;22.81;56.88;100231.97;5074610;28;20043;-61
2023/08/08 07:51:19;;;;;;;1.48;0.98;;;;;;;22.88;57.32;100235.91;5079129;28;20032;-62
2023/08/08 07:53:45;;;;;;;3.10;1.05;;;;;;;23.05;57.22;100232.72;5075843;28;20324;-62
2023/08/08 07:56:10;;;;;;;2.38;1.00;;;;;;;23.21;57.41;100225.03;5086924;28;20029;-62
2023/08/08 07:58:35;;;;;;;2.63;1.13;;;;;;;23.73;55.25;100220.81;5084878;28;20115;-62
2023/08/08 08:01:01;;;;;;;3.33;1.05;;;;;;;24.24;53.57;100227.31;5078333;28;20031;-61
2023/08/08 08:03:27;;;;;;;3.67;1.10;;;;;;;24.77;53.47;100226.28;5080483;28;20028;-61
2023/08/08 08:05:53;;;;;;;1.73;0.90;;;;;;;24.83;50.78;100214.84;5080553;28;20040;-61
2023/08/08 08:08:18;;;;;;;2.05;0.80;;;;;;;24.71;49.58;100213.22;5076257;28;20068;-62
2023/08/08 08:10:45;;;;;;;1.50;0.80;;;;;;;24.83;50.59;100214.84;5070444;28;20038;-61
2023/08/08 08:13:11;;;;;;;2.30;0.80;;;;;;;25.05;50.96;100214.69;5076134;28;20094;-61
2023/08/08 08:15:37;;;;;;;3.78;1.20;;;;;;;25.06;48.64;100218.28;5075463;28;20020;-62
2023/08/08 08:18:03;;;;;;;2.45;0.93;;;;;;;25.30;49.85;100214.22;5080667;28;20024;-61
2023/08/08 08:20:28;;;;;;;2.28;0.93;;;;;;;25.58;48.95;100210.75;5084656;28;20024;-62
2023/08/08 08:22:54;;;;;;;2.42;0.85;;;;;;;25.59;48.63;100215.19;5058396;28;20035;-62
2023/08/08 08:25:19;;;;;;;1.63;0.80;;;;;;;25.38;49.46;100203.53;5069853;28;20031;-61
2023/08/08 08:27:45;;;;;;;1.75;0.80;;;;;;;24.89;49.50;100208.00;5073580;28;20112;-61
2023/08/08 08:30:11;;;;;;;3.03;0.90;;;;;;;24.78;50.56;100208.94;5070535;28;20024;-62
2023/08/08 08:32:38;;;;;;;2.70;1.00;;;;;;;25.22;48.93;100203.13;5082367;28;20044;-61
2023/08/08 08:35:06;;;;;;;1.27;0.80;;;;;;;25.42;48.43;100204.13;5078883;28;20511;-62
2023/08/08 08:37:31;;;;;;;3.80;1.17;;;;;;;25.63;48.37;100200.25;5086080;28;20032;-62
2023/08/08 08:39:56;;;;;;;3.95;1.05;;;;;;;25.78;47.78;100198.84;5084962;28;20344;-62
2023/08/08 08:42:22;;;;;;;2.95;0.93;;;;;;;25.94;46.69;100199.19;5057626;28;20055;-62
2023/08/08 08:44:49;;;;;;;2.40;0.80;;;;;;;25.85;47.26;100210.91;5086088;28;20136;-61
2023/08/08 08:47:19;;;;;;;1.40;0.90;;;;;;;26.00;49.33;100202.34;5087871;28;20027;-61
2023/08/08 08:49:45;;;;;;;2.17;0.90;;;;;;;26.09;47.44;100201.50;5073125;28;20031;-62
2023/08/08 08:52:11;;;;;;;2.13;0.95;;;;;;;26.40;47.79;100197.59;5087367;28;20515;-62
2023/08/08 08:54:38;;;;;;;4.32;1.00;;;;;;;26.69;46.60;100196.56;5084330;28;20020;-61
2023/08/08 08:57:03;;;;;;;7.93;1.33;;;;;;;26.83;47.09;100206.16;5088581;28;20027;-61
2023/08/08 08:59:29;;;;;;;2.75;1.20;;;;;;;27.17;46.56;100190.94;5085322;28;20032;-62
2023/08/08 09:01:55;;;;;;;2.72;1.00;;;;;;;27.30;45.98;100191.47;5088807;28;20742;-61
2023/08/08 09:04:21;;;;;;;6.20;1.00;;;;;;;27.31;45.37;100192.34;5086963;28;20035;-61
2023/08/08 09:06:48;;;;;;;2.08;0.73;;;;;;;27.36;44.69;100195.47;5085401;28;20048;-61
2023/08/08 09:09:15;;;;;;;2.55;0.90;;;;;;;27.32;46.69;100186.72;5072274;28;20020;-61
2023/08/08 09:11:47;;;;;;;2.15;0.90;;;;;;;27.21;44.32;100181.44;5087824;28;20482;-61
2023/08/08 09:14:19;;;;;;;1.67;0.90;;;;;;;27.15;46.15;100182.03;5089522;28;20153;-61
2023/08/08 09:16:46;;;;;;;3.28;0.93;;;;;;;27.17;45.32;100183.59;5081498;28;20040;-61
2023/08/08 09:19:12;;;;;;;1.70;0.80;;;;;;;27.39;44.74;100178.78;5087790;28;20036;-61
2023/08/08 09:21:37;;;;;;;8.75;1.35;;;;;;;27.21;44.32;100179.53;5086766;28;20032;-61
2023/08/08 09:24:03;;;;;;;2.90;0.88;;;;;;;27.26;43.64;100179.13;5082631;28;20040;-62
2023/08/08 09:26:29;;;;;;;2.35;0.82;;;;;;;27.50;44.23;100167.63;5089187;28;20043;-61
2023/08/08 09:28:54;;;;;;;1.88;0.80;;;;;;;27.95;43.72;100177.56;5077025;28;20375;-60
2023/08/08 09:31:19;;;;;;;2.33;0.82;;;;;;;27.92;44.66;100171.53;5072839;28;20133;-59
2023/08/08 09:33:48;;;;;;;2.88;0.82;;;;;;;27.85;44.62;100171.28;5071748;28;20028;-59
2023/08/08 09:36:15;;;;;;;4.10;1.00;;;;;;;27.83;45.17;100172.44;5069180;28;20030;-60
2023/08/08 09:38:41;;;;;;;4.65;1.13;;;;;;;27.65;44.26;100163.34;5069264;28;20024;-60
2023/08/08 09:41:06;;;;;;;5.47;1.25;;;;;;;27.66;44.66;100170.56;5077045;28;20039;-61
2023/08/08 09:43:32;;;;;;;2.42;1.02;;;;;;;27.39;43.39;100168.72;5081518;28;20043;-60
2023/08/08 09:45:57;;;;;;;2.40;0.98;;;;;;;26.86;44.68;100170.38;5088120;28;20134;-60
2023/08/08 09:48:25;;;;;;;2.08;0.70;;;;;;;26.17;45.89;100161.59;5089436;28;20384;-60
2023/08/08 09:50:51;;;;;;;5.13;1.02;;;;;;;26.09;48.98;100168.78;5089699;28;20036;-59
2023/08/08 09:53:17;;;;;;;1.13;0.50;;;;;;;26.23;48.46;100161.00;5084562;28;20495;-60
2023/08/08 09:55:44;;;;;;;2.53;0.88;;;;;;;26.58;46.90;100160.38;5088988;28;20036;-60
2023/08/08 09:58:09;;;;;;;1.77;1.13;;;;;;;26.84;46.83;100156.00;5082122;28;20021;-60
2023/08/08 10:00:36;;;;;;;178.43;34.05;;;;;;;27.31;45.64;100160.44;5081916;28;20035;-60
2023/08/08 10:03:02;;;;;;;2.83;0.90;;;;;;;27.35;44.96;100156.34;5087511;28;20047;-60
2023/08/08 10:05:27;;;;;;;3.10;0.85;;;;;;;27.16;45.38;100156.44;5087713;28;20387;-60
2023/08/08 10:07:54;;;;;;;3.05;1.10;;;;;;;26.76;45.97;100153.16;5070933;28;20056;-59
2023/08/08 10:10:20;;;;;;;2.05;1.00;;;;;;;26.86;45.64;100163.06;5067530;28;20020;-60
2023/08/08 10:12:48;;;;;;;16.23;1.65;;;;;;;26.44;46.75;100166.31;5064310;28;20033;-61
2023/08/08 10:15:13;;;;;;;3.03;0.98;;;;;;;25.96;46.50;100156.25;5061339;28;20115;-61
2023/08/08 10:17:41;;;;;;;1.58;0.75;;;;;;;26.40;46.85;100148.50;5068934;28;20060;-60
2023/08/08 10:20:11;;;;;;;4.20;1.13;;;;;;;27.19;45.24;100151.53;5066424;28;20103;-60
2023/08/08 10:22:44;;;;;;;257.70;27.33;;;;;;;27.91;43.74;100142.47;5057501;28;20774;-59
2023/08/08 10:25:27;;;;;;;10.57;1.88;;;;;;;27.90;42.97;100152.56;5065200;28;20020;-59
2023/08/08 10:28:08;;;;;;;1.45;0.90;;;;;;;27.44;43.74;100144.53;5073526;28;20039;-60
2023/08/08 10:30:57;;;;;;;2.15;0.80;;;;;;;27.31;44.44;100137.69;5061418;28;20037;-59
2023/08/08 10:33:28;;;;;;;3.97;1.05;;;;;;;27.51;45.40;100144.78;5068585;28;20060;-61
2023/08/08 10:36:01;;;;;;;3.03;1.10;;;;;;;28.25;43.50;100141.56;5068645;28;20079;-60
2023/08/08 10:38:39;;;;;;;110.43;8.02;;;;;;;28.99;41.44;100141.06;5058222;28;20033;-61
2023/08/08 10:41:05;;;;;;;3.33;1.00;;;;;;;29.32;40.29;100131.97;5047821;28;20119;-60
2023/08/08 10:43:31;;;;;;;1.92;0.82;;;;;;;29.13;39.37;100134.97;5053679;28;20115;-60
2023/08/08 10:46:04;;;;;;;4.45;1.25;;;;;;;29.00;41.32;100143.63;5064664;28;20087;-61
2023/08/08 10:48:29;;;;;;;;;;;;;;;28.59;40.90;100132.59;5065767;28;20059;-61
2023/08/08 10:50:59;;;;;;;64.57;3.95;;;;;;;29.02;41.46;100129.75;5066303;28;19963;-61
2023/08/08 10:53:28;;;;;;;6.63;1.23;;;;;;;29.40;40.64;100135.63;5066572;28;20225;-61
2023/08/08 10:56:02;;;;;;;11.00;1.05;;;;;;;29.44;38.81;100131.50;5062848;28;20079;-60
2023/08/08 10:58:38;;;;;;;137.25;17.77;;;;;;;29.35;39.82;100126.16;5061058;28;20392;-61
2023/08/08 11:01:07;;;;;;;22.55;1.73;;;;;;;29.56;39.01;100132.03;5057013;28;20025;-61
2023/08/08 11:03:34;;;;;;;39.75;3.70;;;;;;;29.83;39.82;100129.06;5051951;28;20028;-61
2023/08/08 11:06:00;;;;;;;2.63;0.93;;;;;;;29.01;40.67;100125.31;5056579;28;20028;-61
2023/08/08 11:08:27;;;;;;;122.82;22.90;;;;;;;29.08;38.74;100123.66;5068567;28;20048;-62
2023/08/08 11:10:52;;;;;;;35.25;2.83;;;;;;;28.67;38.95;100127.16;5066844;28;20044;-63
2023/08/08 11:13:20;;;;;;;2.22;1.15;;;;;;;27.79;41.48;100133.59;5068147;28;20070;-61
2023/08/08 11:15:46;;;;;;;44.55;3.33;;;;;;;27.57;42.17;100136.81;5079706;28;20036;-61
2023/08/08 11:18:12;;;;;;;195.40;53.05;;;;;;;27.59;41.64;100121.13;5076564;28;20035;-63
2023/08/08 11:20:38;;;;;;;4.03;0.65;;;;;;;27.14;41.01;100103.84;5075092;28;20122;-63